createdAt,value
2023-02-11T00:00:04.780Z,73.73
2023-02-11T00:00:41.028Z,71.80
2023-02-11T00:01:25.405Z,73.33
2023-02-11T00:01:57.240Z,81.13
2023-02-11T00:02:29.801Z,88.30
2023-02-11T00:03:01.658Z,74.43
2023-02-11T00:03:33.490Z,73.10
2023-02-11T00:04:06.977Z,72.40
2023-02-11T00:04:38.716Z,71.70
2023-02-11T00:05:10.920Z,70.40
2023-02-11T00:05:42.703Z,66.77
2023-02-11T00:06:14.804Z,60.97
2023-02-11T00:06:46.562Z,58.60
2023-02-11T00:07:18.324Z,56.37
2023-02-11T00:07:50.094Z,58.47
2023-02-11T00:08:21.839Z,59.00
2023-02-11T00:08:54.594Z,61.97
2023-02-11T00:09:26.378Z,65.67
2023-02-11T00:09:58.159Z,67.30
2023-02-11T00:10:29.871Z,67.60
2023-02-11T00:11:01.768Z,58.77
2023-02-11T00:11:34.538Z,56.53
2023-02-11T00:12:06.511Z,54.93
2023-02-11T00:12:38.703Z,54.63
2023-02-11T00:13:10.449Z,55.57
2023-02-11T00:13:43.724Z,58.57
2023-02-11T00:14:15.658Z,58.40
2023-02-11T00:14:47.688Z,60.00
2023-02-11T00:15:21.273Z,60.37
2023-02-11T00:15:54.221Z,57.97
2023-02-11T00:16:26.624Z,54.10
2023-02-11T00:16:58.587Z,57.10
2023-02-11T00:17:30.470Z,56.57
2023-02-11T00:18:02.264Z,59.47
2023-02-11T00:18:34.090Z,59.13
2023-02-11T00:19:06.764Z,58.43
2023-02-11T00:19:38.522Z,55.43
2023-02-11T00:20:10.559Z,52.73
2023-02-11T00:20:43.225Z,52.43
2023-02-11T00:21:17.938Z,54.13
2023-02-11T00:21:49.676Z,54.00
2023-02-11T00:22:21.557Z,55.20
2023-02-11T00:22:53.351Z,55.60
2023-02-11T00:23:25.271Z,55.77
2023-02-11T00:23:59.836Z,52.97
2023-02-11T00:24:31.682Z,55.80
2023-02-11T00:25:03.857Z,55.23
2023-02-11T00:25:41.066Z,56.03
2023-02-11T00:26:22.181Z,57.63
2023-02-11T00:26:53.920Z,53.87
2023-02-11T00:27:25.709Z,56.00
2023-02-11T00:27:57.645Z,56.17
2023-02-11T00:28:29.792Z,54.60
2023-02-11T00:29:02.619Z,53.30
2023-02-11T00:29:34.369Z,55.93
2023-02-11T00:30:06.633Z,55.90
2023-02-11T00:30:38.641Z,55.03
2023-02-11T00:31:11.119Z,53.80
2023-02-11T00:31:43.073Z,54.23
2023-02-11T00:32:14.957Z,55.70
2023-02-11T00:32:47.044Z,55.60
2023-02-11T00:33:18.891Z,55.93
2023-02-11T00:33:51.622Z,55.13
2023-02-11T00:34:23.852Z,55.37
2023-02-11T00:34:55.734Z,55.83
2023-02-11T00:35:27.880Z,57.57
2023-02-11T00:36:04.561Z,56.67
2023-02-11T00:36:36.322Z,57.47
2023-02-11T00:37:08.102Z,58.60
2023-02-11T00:37:39.976Z,58.17
2023-02-11T00:38:11.804Z,58.77
2023-02-11T00:38:44.944Z,62.00
2023-02-11T00:39:16.714Z,60.50
2023-02-11T00:39:50.208Z,57.53
2023-02-11T00:40:22.678Z,54.83
2023-02-11T00:40:54.476Z,57.37
2023-02-11T00:41:27.057Z,52.53
2023-02-11T00:41:59.244Z,51.47
2023-02-11T00:42:31.086Z,52.17
2023-02-11T00:43:02.852Z,51.83
2023-02-11T00:43:35.821Z,53.93
2023-02-11T00:44:07.660Z,55.10
2023-02-11T00:44:39.501Z,55.90
2023-02-11T00:45:12.526Z,62.13
2023-02-11T00:45:44.309Z,61.67
2023-02-11T00:46:16.312Z,55.73
2023-02-11T00:46:48.233Z,54.10
2023-02-11T00:47:19.954Z,55.80
2023-02-11T00:47:51.742Z,59.87
2023-02-11T00:48:23.515Z,63.53
2023-02-11T00:48:57.883Z,66.77
2023-02-11T00:49:29.763Z,65.93
2023-02-11T00:50:02.347Z,66.50
2023-02-11T00:50:34.116Z,74.77
2023-02-11T00:51:06.847Z,83.43
2023-02-11T00:51:38.688Z,87.93
2023-02-11T00:52:10.537Z,88.17
2023-02-11T00:52:42.560Z,84.70
2023-02-11T00:53:14.357Z,91.20
2023-02-11T00:53:46.183Z,96.30
2023-02-11T00:54:17.958Z,103.63
2023-02-11T00:54:49.808Z,103.63
2023-02-11T00:55:21.618Z,101.30
2023-02-11T00:55:53.562Z,104.80
2023-02-11T00:56:25.490Z,107.07
2023-02-11T00:56:57.219Z,111.53
2023-02-11T00:57:28.986Z,115.00
2023-02-11T00:58:00.710Z,116.17
2023-02-11T00:58:32.494Z,115.13
2023-02-11T00:59:04.480Z,111.70
2023-02-11T00:59:36.399Z,110.50
2023-02-11T01:00:10.025Z,113.63
2023-02-11T01:00:41.758Z,113.83
2023-02-11T01:01:14.074Z,114.07
2023-02-11T01:01:45.870Z,114.50
2023-02-11T01:02:18.103Z,116.20
2023-02-11T01:02:49.898Z,115.30
2023-02-11T01:03:21.732Z,115.03
2023-02-11T01:03:53.555Z,119.20
2023-02-11T01:04:25.443Z,118.93
2023-02-11T01:04:58.596Z,119.07
2023-02-11T01:05:30.511Z,111.27
2023-02-11T01:06:02.383Z,93.43
2023-02-11T01:06:34.204Z,92.90
2023-02-11T01:07:06.198Z,102.63
2023-02-11T01:07:37.984Z,108.40
2023-02-11T01:08:09.835Z,111.83
2023-02-11T01:08:41.818Z,106.57
2023-02-11T01:09:13.573Z,98.40
2023-02-11T01:09:45.402Z,97.87
2023-02-11T01:10:17.407Z,102.97
2023-02-11T01:11:17.180Z,107.03
2023-02-11T01:11:48.945Z,105.00
2023-02-11T01:12:20.906Z,107.60
2023-02-11T01:12:52.750Z,96.40
2023-02-11T01:13:26.146Z,105.80
2023-02-11T01:13:57.877Z,108.23
2023-02-11T01:14:29.672Z,107.27
2023-02-11T01:15:01.469Z,110.30
2023-02-11T01:15:33.582Z,114.63
2023-02-11T01:16:10.237Z,113.57
2023-02-11T01:16:42.091Z,120.23
2023-02-11T01:17:13.885Z,120.90
2023-02-11T01:17:45.878Z,124.23
2023-02-11T01:18:17.843Z,125.03
2023-02-11T01:18:49.599Z,125.43
2023-02-11T01:19:21.415Z,127.27
2023-02-11T01:19:53.215Z,122.17
2023-02-11T01:20:28.570Z,125.00
2023-02-11T01:21:00.416Z,130.40
2023-02-11T01:21:32.371Z,132.77
2023-02-11T01:22:05.036Z,131.10
2023-02-11T01:22:39.645Z,133.13
2023-02-11T01:23:11.814Z,132.00
2023-02-11T01:23:43.653Z,131.97
2023-02-11T01:24:15.410Z,134.13
2023-02-11T01:24:47.497Z,131.30
2023-02-11T01:25:19.472Z,132.83
2023-02-11T01:25:51.545Z,131.50
2023-02-11T01:26:23.492Z,124.07
2023-02-11T01:26:55.443Z,126.90
2023-02-11T01:27:27.200Z,130.47
2023-02-11T01:27:59.037Z,128.60
2023-02-11T01:28:31.727Z,130.93
2023-02-11T01:29:03.875Z,130.53
2023-02-11T01:29:35.567Z,129.00
2023-02-11T01:30:09.682Z,129.63
2023-02-11T01:30:41.456Z,127.17
2023-02-11T01:31:14.249Z,126.57
2023-02-11T01:31:46.120Z,127.40
2023-02-11T01:32:18.010Z,126.27
2023-02-11T01:32:49.821Z,123.73
2023-02-11T01:33:22.669Z,122.23
2023-02-11T01:33:54.450Z,123.40
2023-02-11T01:34:26.217Z,124.33
2023-02-11T01:34:58.015Z,125.37
2023-02-11T01:35:29.877Z,124.50
2023-02-11T01:36:03.599Z,124.53
2023-02-11T01:36:35.321Z,126.00
2023-02-11T01:37:07.309Z,125.10
2023-02-11T01:37:39.185Z,124.10
2023-02-11T01:38:26.211Z,121.80
2023-02-11T01:38:57.990Z,118.70
2023-02-11T01:39:34.106Z,119.33
2023-02-11T01:40:08.568Z,122.83
2023-02-11T01:40:40.367Z,123.83
2023-02-11T01:41:14.909Z,125.43
2023-02-11T01:41:46.691Z,124.07
2023-02-11T01:42:20.892Z,122.93
2023-02-11T01:42:52.715Z,119.40
2023-02-11T01:43:26.446Z,119.97
2023-02-11T01:43:58.262Z,125.23
2023-02-11T01:44:37.011Z,121.77
2023-02-11T01:45:46.312Z,120.90
2023-02-11T01:46:24.009Z,126.77
2023-02-11T01:46:55.959Z,125.27
2023-02-11T01:47:27.715Z,123.57
2023-02-11T01:48:02.522Z,125.00
2023-02-11T01:48:39.001Z,125.27
2023-02-11T01:49:21.841Z,125.57
2023-02-11T01:49:59.193Z,124.07
2023-02-11T01:50:31.830Z,127.73
2023-02-11T01:51:49.581Z,128.27
2023-02-11T01:52:31.214Z,130.17
2023-02-11T01:53:22.987Z,127.87
2023-02-11T01:54:15.718Z,135.73
2023-02-11T01:55:10.558Z,141.60
2023-02-11T01:56:01.164Z,140.43
2023-02-11T01:56:55.879Z,140.20
2023-02-11T01:57:31.473Z,139.90
2023-02-11T01:58:05.388Z,139.80
2023-02-11T01:58:42.038Z,136.43
2023-02-11T01:59:22.752Z,133.63
2023-02-11T02:00:10.303Z,127.23
2023-02-11T02:00:43.144Z,125.23
2023-02-11T02:01:23.391Z,128.43
2023-02-11T02:02:00.946Z,131.47
2023-02-11T02:03:08.115Z,127.63
2023-02-11T02:03:45.482Z,123.83
2023-02-11T02:04:19.849Z,128.40
2023-02-11T02:04:58.826Z,127.67
2023-02-11T02:05:37.265Z,125.80
2023-02-11T02:06:45.954Z,129.57
2023-02-11T02:07:31.459Z,130.17
2023-02-11T02:08:09.188Z,129.90
2023-02-11T02:09:01.102Z,130.73
2023-02-11T02:09:40.514Z,131.90
2023-02-11T02:10:19.612Z,129.10
2023-02-11T02:10:56.630Z,128.60
2023-02-11T02:11:28.390Z,130.17
2023-02-11T02:12:00.449Z,127.67
2023-02-11T02:12:32.283Z,131.00
2023-02-11T02:13:04.228Z,131.33
2023-02-11T02:13:36.496Z,131.37
2023-02-11T02:14:08.248Z,130.03
2023-02-11T02:14:41.824Z,131.27
2023-02-11T02:15:29.575Z,130.37
2023-02-11T02:16:04.770Z,133.00
2023-02-11T02:16:38.037Z,131.53
2023-02-11T02:17:27.719Z,128.87
2023-02-11T02:18:07.276Z,119.83
2023-02-11T02:19:00.609Z,120.07
2023-02-11T02:20:02.669Z,124.63
2023-02-11T02:21:09.011Z,122.10
2023-02-11T02:22:14.300Z,121.93
2023-02-11T02:23:17.243Z,130.53
2023-02-11T02:24:22.255Z,125.77
2023-02-11T02:25:01.194Z,129.57
2023-02-11T02:25:51.214Z,129.73
2023-02-11T02:27:04.126Z,128.07
2023-02-11T02:28:03.039Z,127.10
2023-02-11T02:29:14.673Z,128.57
2023-02-11T02:30:03.772Z,117.70
2023-02-11T02:31:09.064Z,114.63
2023-02-11T02:31:50.081Z,120.80
2023-02-11T02:32:43.688Z,121.03
2023-02-11T02:33:34.787Z,126.33
2023-02-11T02:34:48.678Z,124.73
2023-02-11T02:35:52.628Z,109.13
2023-02-11T02:36:34.492Z,110.83
2023-02-11T02:37:31.671Z,118.97
2023-02-11T02:38:14.505Z,126.93
2023-02-11T02:38:57.901Z,124.17
2023-02-11T02:39:34.655Z,126.50
2023-02-11T02:40:36.944Z,129.07
2023-02-11T02:41:13.131Z,130.93
2023-02-11T02:41:47.306Z,123.90
2023-02-11T02:42:21.489Z,123.20
2023-02-11T02:42:55.127Z,121.77
2023-02-11T02:43:27.947Z,120.57
2023-02-11T02:44:00.253Z,120.53
2023-02-11T02:44:32.502Z,122.00
2023-02-11T02:45:04.920Z,127.47
2023-02-11T02:45:36.827Z,127.70
2023-02-11T02:46:27.221Z,128.83
2023-02-11T02:46:59.111Z,126.13
2023-02-11T02:47:30.893Z,126.40
2023-02-11T02:48:02.626Z,126.20
2023-02-11T02:48:38.099Z,130.43
2023-02-11T02:49:15.031Z,127.67
2023-02-11T02:49:46.795Z,125.03
2023-02-11T02:50:30.295Z,123.07
2023-02-11T02:51:32.230Z,127.40
2023-02-11T02:52:56.179Z,128.07
2023-02-11T02:53:38.848Z,117.60
2023-02-11T02:54:22.412Z,119.33
2023-02-11T02:55:28.234Z,123.60
2023-02-11T02:56:32.772Z,115.57
2023-02-11T02:57:32.799Z,115.50
2023-02-11T02:58:07.483Z,111.57
2023-02-11T02:58:48.009Z,111.37
2023-02-11T02:59:25.452Z,115.37
2023-02-11T03:00:21.922Z,116.90
2023-02-11T03:01:20.915Z,117.97
2023-02-11T03:02:24.915Z,115.60
2023-02-11T03:03:15.813Z,113.67
2023-02-11T03:04:06.586Z,114.73
2023-02-11T03:04:53.006Z,116.67
2023-02-11T03:05:57.295Z,114.43
2023-02-11T03:06:44.738Z,114.27
2023-02-11T03:08:05.776Z,115.23
2023-02-11T03:08:57.138Z,115.13
2023-02-11T03:09:39.198Z,116.07
2023-02-11T03:10:41.270Z,118.30
2023-02-11T03:11:18.676Z,116.03
2023-02-11T03:11:50.560Z,113.60
2023-02-11T03:12:24.913Z,114.37
2023-02-11T03:12:57.788Z,115.10
2023-02-11T03:13:34.085Z,117.70
2023-02-11T03:14:10.773Z,119.30
2023-02-11T03:14:42.751Z,118.50
2023-02-11T03:15:17.697Z,118.60
2023-02-11T03:15:54.120Z,121.43
2023-02-11T03:16:28.513Z,115.13
2023-02-11T03:17:05.240Z,116.67
2023-02-11T03:17:42.852Z,117.53
2023-02-11T03:18:19.263Z,117.77
2023-02-11T03:19:10.559Z,117.60
2023-02-11T03:19:46.368Z,117.10
2023-02-11T03:20:22.492Z,118.87
2023-02-11T03:20:56.328Z,118.80
2023-02-11T03:21:32.645Z,122.23
2023-02-11T03:22:11.981Z,120.53
2023-02-11T03:22:52.752Z,114.73
2023-02-11T03:23:39.014Z,116.27
2023-02-11T03:24:30.698Z,113.60
2023-02-11T03:25:03.381Z,110.60
2023-02-11T03:25:42.146Z,106.77
2023-02-11T03:26:25.516Z,110.20
2023-02-11T03:27:03.790Z,114.00
2023-02-11T03:27:41.626Z,114.20
2023-02-11T03:28:39.197Z,117.60
2023-02-11T03:29:33.126Z,111.87
2023-02-11T03:30:09.952Z,112.20
2023-02-11T03:31:01.240Z,114.77
2023-02-11T03:32:06.007Z,113.50
2023-02-11T03:32:52.555Z,97.33
2023-02-11T03:33:35.813Z,91.17
2023-02-11T03:34:10.027Z,103.53
2023-02-11T03:34:44.769Z,93.27
2023-02-11T03:35:32.770Z,91.07
2023-02-11T03:36:15.540Z,102.00
2023-02-11T03:36:58.974Z,96.33
2023-02-11T03:37:39.916Z,90.00
2023-02-11T03:38:39.410Z,99.13
2023-02-11T03:39:16.094Z,105.03
2023-02-11T03:40:03.597Z,91.03
2023-02-11T03:40:41.578Z,88.03
2023-02-11T03:41:17.800Z,103.53
2023-02-11T03:41:52.790Z,99.30
2023-02-11T03:42:30.906Z,93.90
2023-02-11T03:43:20.195Z,92.93
2023-02-11T03:43:58.324Z,97.20
2023-02-11T03:44:37.027Z,88.00
2023-02-11T03:45:14.014Z,98.00
2023-02-11T03:45:51.189Z,100.87
2023-02-11T03:46:31.052Z,106.70
2023-02-11T03:47:08.074Z,108.37
2023-02-11T03:47:46.423Z,108.07
2023-02-11T03:48:31.215Z,104.50
2023-02-11T03:49:11.655Z,100.00
2023-02-11T03:49:49.306Z,103.10
2023-02-11T03:50:23.396Z,105.50
2023-02-11T03:50:58.769Z,106.77
2023-02-11T03:51:33.022Z,106.00
2023-02-11T03:52:07.903Z,107.07
2023-02-11T03:52:39.948Z,106.20
2023-02-11T03:53:14.609Z,106.00
2023-02-11T03:53:47.756Z,97.67
2023-02-11T03:54:29.307Z,96.40
2023-02-11T03:55:06.079Z,90.57
2023-02-11T03:55:40.486Z,84.40
2023-02-11T03:56:21.653Z,97.63
2023-02-11T03:56:56.970Z,96.63
2023-02-11T03:57:28.886Z,88.97
2023-02-11T03:58:01.119Z,104.87
2023-02-11T03:58:32.856Z,107.33
2023-02-11T03:59:04.700Z,94.33
2023-02-11T03:59:56.086Z,87.70
2023-02-11T04:00:37.194Z,82.50
2023-02-11T04:01:10.004Z,81.30
2023-02-11T04:01:42.042Z,75.77
2023-02-11T04:02:13.778Z,85.43
2023-02-11T04:02:45.838Z,97.70
2023-02-11T04:03:17.812Z,103.83
2023-02-11T04:03:49.684Z,108.30
2023-02-11T04:04:21.507Z,108.73
2023-02-11T04:04:53.630Z,102.50
2023-02-11T04:05:25.774Z,87.40
2023-02-11T04:05:57.567Z,79.23
2023-02-11T04:06:29.343Z,94.30
2023-02-11T04:07:01.058Z,102.83
2023-02-11T04:07:33.263Z,103.97
2023-02-11T04:08:05.577Z,99.43
2023-02-11T04:08:37.404Z,98.20
2023-02-11T04:09:10.289Z,102.10
2023-02-11T04:09:42.379Z,101.23
2023-02-11T04:10:14.408Z,102.80
2023-02-11T04:10:46.348Z,103.93
2023-02-11T04:11:18.182Z,104.90
2023-02-11T04:11:49.943Z,107.57
2023-02-11T04:12:22.224Z,103.90
2023-02-11T04:12:54.032Z,102.13
2023-02-11T04:13:27.259Z,105.60
2023-02-11T04:13:58.996Z,103.80
2023-02-11T04:14:30.736Z,103.47
2023-02-11T04:15:02.478Z,102.10
2023-02-11T04:15:34.430Z,104.40
2023-02-11T04:16:06.320Z,105.00
2023-02-11T04:16:38.149Z,105.40
2023-02-11T04:17:11.064Z,106.20
2023-02-11T04:17:43.176Z,105.77
2023-02-11T04:18:15.116Z,103.17
2023-02-11T04:18:46.893Z,98.23
2023-02-11T04:19:18.847Z,84.27
2023-02-11T04:19:50.638Z,84.00
2023-02-11T04:20:22.421Z,87.37
2023-02-11T04:20:54.149Z,90.80
2023-02-11T04:21:25.954Z,102.03
2023-02-11T04:21:57.923Z,101.43
2023-02-11T04:22:30.370Z,97.17
2023-02-11T04:23:02.158Z,86.90
2023-02-11T04:23:33.970Z,73.97
2023-02-11T04:24:05.904Z,85.90
2023-02-11T04:24:37.774Z,102.33
2023-02-11T04:25:10.083Z,104.43
2023-02-11T04:25:42.978Z,100.27
2023-02-11T04:26:14.887Z,104.50
2023-02-11T04:26:46.747Z,103.37
2023-02-11T04:27:18.564Z,98.00
2023-02-11T04:27:50.349Z,95.10
2023-02-11T04:28:22.266Z,89.90
2023-02-11T04:28:54.052Z,94.23
2023-02-11T04:29:25.795Z,91.67
2023-02-11T04:29:57.558Z,82.00
2023-02-11T04:30:29.304Z,77.33
2023-02-11T04:31:01.120Z,71.97
2023-02-11T04:31:33.062Z,81.23
2023-02-11T04:32:05.153Z,75.87
2023-02-11T04:32:37.019Z,70.03
2023-02-11T04:33:08.790Z,72.53
2023-02-11T04:33:40.604Z,78.30
2023-02-11T04:34:12.562Z,77.23
2023-02-11T04:34:44.670Z,74.80
2023-02-11T04:35:16.597Z,74.20
2023-02-11T04:35:48.812Z,69.73
2023-02-11T04:36:20.876Z,69.50
2023-02-11T04:36:52.654Z,79.40
2023-02-11T04:37:24.493Z,84.47
2023-02-11T04:37:56.328Z,81.03
2023-02-11T04:38:28.212Z,70.90
2023-02-11T04:39:00.044Z,66.90
2023-02-11T04:39:31.870Z,70.43
2023-02-11T04:40:04.067Z,71.93
2023-02-11T04:40:35.876Z,73.77
2023-02-11T04:41:07.655Z,79.27
2023-02-11T04:41:39.463Z,80.23
2023-02-11T04:42:11.331Z,78.33
2023-02-11T04:42:43.275Z,78.43
2023-02-11T04:43:15.168Z,77.00
2023-02-11T04:43:46.922Z,75.53
2023-02-11T04:44:18.699Z,77.43
2023-02-11T04:44:50.509Z,78.27
2023-02-11T04:45:22.285Z,80.03
2023-02-11T04:45:58.805Z,83.00
2023-02-11T04:46:30.902Z,85.33
2023-02-11T04:47:02.684Z,88.23
2023-02-11T04:47:34.798Z,87.53
2023-02-11T04:48:06.560Z,87.80
2023-02-11T04:48:38.353Z,87.70
2023-02-11T04:49:14.212Z,90.00
2023-02-11T04:49:46.024Z,90.60
2023-02-11T04:50:17.906Z,92.27
2023-02-11T04:50:49.654Z,91.73
2023-02-11T04:51:21.437Z,88.23
2023-02-11T04:51:53.225Z,90.40
2023-02-11T04:52:25.064Z,94.93
2023-02-11T04:52:57.060Z,95.70
2023-02-11T04:53:28.873Z,94.00
2023-02-11T04:54:00.692Z,89.73
2023-02-11T04:54:32.506Z,89.30
2023-02-11T04:55:04.663Z,90.07
2023-02-11T04:55:36.455Z,88.27
2023-02-11T04:56:08.407Z,91.07
2023-02-11T04:56:40.263Z,91.50
2023-02-11T04:57:12.026Z,91.07
2023-02-11T04:57:43.871Z,89.27
2023-02-11T04:58:15.632Z,89.20
2023-02-11T04:58:47.435Z,89.23
2023-02-11T04:59:19.180Z,90.10
2023-02-11T04:59:51.158Z,94.43
2023-02-11T05:00:23.076Z,97.33
2023-02-11T05:00:54.912Z,107.17
2023-02-11T05:01:26.809Z,110.13
2023-02-11T05:01:58.671Z,103.33
2023-02-11T05:02:30.375Z,101.70
2023-02-11T05:03:02.103Z,100.13
2023-02-11T05:03:34.007Z,99.63
2023-02-11T05:04:05.819Z,106.13
2023-02-11T05:04:37.618Z,105.47
2023-02-11T05:05:09.413Z,100.57
2023-02-11T05:05:42.668Z,99.23
2023-02-11T05:06:14.476Z,102.43
2023-02-11T05:06:46.323Z,104.00
2023-02-11T05:07:18.115Z,102.43
2023-02-11T05:07:49.942Z,101.83
2023-02-11T05:08:21.647Z,100.27
2023-02-11T05:08:53.370Z,101.83
2023-02-11T05:09:25.245Z,101.77
2023-02-11T05:09:56.994Z,106.37
2023-02-11T05:10:28.754Z,108.43
2023-02-11T05:11:02.280Z,112.60
2023-02-11T05:11:34.464Z,113.87
2023-02-11T05:12:06.464Z,111.57
2023-02-11T05:12:38.276Z,106.13
2023-02-11T05:13:09.994Z,105.93
2023-02-11T05:13:41.729Z,105.67
2023-02-11T05:14:13.466Z,102.93
2023-02-11T05:14:45.327Z,102.57
2023-02-11T05:15:17.204Z,104.53
2023-02-11T05:15:49.403Z,102.43
2023-02-11T05:16:21.618Z,101.93
2023-02-11T05:16:53.503Z,103.67
2023-02-11T05:17:25.274Z,106.40
2023-02-11T05:17:57.023Z,104.20
2023-02-11T05:18:28.734Z,100.67
2023-02-11T05:19:00.503Z,99.83
2023-02-11T05:19:32.458Z,102.87
2023-02-11T05:20:04.502Z,102.47
2023-02-11T05:20:38.948Z,99.37
2023-02-11T05:21:14.213Z,100.27
2023-02-11T05:22:01.365Z,105.13
2023-02-11T05:22:33.456Z,107.77
2023-02-11T05:23:05.217Z,100.80
2023-02-11T05:23:37.590Z,102.13
2023-02-11T05:24:09.447Z,108.23
2023-02-11T05:24:41.286Z,105.37
2023-02-11T05:25:13.272Z,107.63
2023-02-11T05:25:44.998Z,106.87
2023-02-11T05:26:17.568Z,103.57
2023-02-11T05:26:49.474Z,101.10
2023-02-11T05:27:21.400Z,100.47
2023-02-11T05:27:53.146Z,102.57
2023-02-11T05:28:25.087Z,102.80
2023-02-11T05:28:56.964Z,104.30
2023-02-11T05:29:28.862Z,105.23
2023-02-11T05:30:00.625Z,98.37
2023-02-11T05:30:33.103Z,93.70
2023-02-11T05:31:07.867Z,98.23
2023-02-11T05:31:39.667Z,99.40
2023-02-11T05:32:12.258Z,99.30
2023-02-11T05:32:44.030Z,102.27
2023-02-11T05:33:15.832Z,101.80
2023-02-11T05:33:47.659Z,98.90
2023-02-11T05:34:19.663Z,104.73
2023-02-11T05:34:51.429Z,103.10
2023-02-11T05:35:23.319Z,112.97
2023-02-11T05:36:07.792Z,114.77
2023-02-11T05:36:39.574Z,111.67
2023-02-11T05:37:11.488Z,107.87
2023-02-11T05:37:43.633Z,106.73
2023-02-11T05:38:15.424Z,98.40
2023-02-11T05:38:47.247Z,91.90
2023-02-11T05:39:19.097Z,89.50
2023-02-11T05:39:50.822Z,88.93
2023-02-11T05:40:22.598Z,91.53
2023-02-11T05:40:54.544Z,93.03
2023-02-11T05:41:26.389Z,95.60
2023-02-11T05:41:58.143Z,96.80
2023-02-11T05:42:29.874Z,104.87
2023-02-11T05:43:01.719Z,103.70
2023-02-11T05:43:35.445Z,97.70
2023-02-11T05:44:07.265Z,94.63
2023-02-11T05:44:39.188Z,94.53
2023-02-11T05:45:11.036Z,92.37
2023-02-11T05:45:42.809Z,91.30
2023-02-11T05:46:14.549Z,87.77
2023-02-11T05:46:46.493Z,91.63
2023-02-11T05:47:18.351Z,90.47
2023-02-11T05:47:50.149Z,87.23
2023-02-11T05:48:22.086Z,85.90
2023-02-11T05:48:54.140Z,95.17
2023-02-11T05:49:26.060Z,101.50
2023-02-11T05:49:59.010Z,101.77
2023-02-11T05:50:30.755Z,96.43
2023-02-11T05:51:02.522Z,88.50
2023-02-11T05:51:34.288Z,89.77
2023-02-11T05:52:06.168Z,85.37
2023-02-11T05:52:37.967Z,93.37
2023-02-11T05:53:09.994Z,122.53
2023-02-11T05:53:42.006Z,143.13
2023-02-11T05:54:13.832Z,145.60
2023-02-11T05:54:45.624Z,123.87
2023-02-11T05:55:17.496Z,119.00
2023-02-11T05:55:49.486Z,117.10
2023-02-11T05:56:21.575Z,111.10
2023-02-11T05:56:53.878Z,107.90
2023-02-11T05:57:25.704Z,99.30
2023-02-11T05:57:57.771Z,96.43
2023-02-11T05:58:29.594Z,98.17
2023-02-11T05:59:01.525Z,95.03
2023-02-11T05:59:33.377Z,91.20
2023-02-11T06:00:06.330Z,95.33
2023-02-11T06:00:38.302Z,95.77
2023-02-11T06:01:10.115Z,93.60
2023-02-11T06:01:42.384Z,95.17
2023-02-11T06:02:14.269Z,97.20
2023-02-11T06:02:46.099Z,97.87
2023-02-11T06:03:17.890Z,99.63
2023-02-11T06:03:51.557Z,98.90
2023-02-11T06:04:23.422Z,99.67
2023-02-11T06:04:55.315Z,101.20
2023-02-11T06:05:27.161Z,97.50
2023-02-11T06:05:58.953Z,97.50
2023-02-11T06:06:34.386Z,100.97
2023-02-11T06:07:06.254Z,102.93
2023-02-11T06:07:38.223Z,103.23
2023-02-11T06:08:10.075Z,101.97
2023-02-11T06:08:41.832Z,101.67
2023-02-11T06:09:13.560Z,107.83
2023-02-11T06:09:45.862Z,108.00
2023-02-11T06:10:17.963Z,103.13
2023-02-11T06:10:49.765Z,99.27
2023-02-11T06:11:21.539Z,93.30
2023-02-11T06:11:53.283Z,93.73
2023-02-11T06:12:25.224Z,93.57
2023-02-11T06:12:56.981Z,95.87
2023-02-11T06:13:28.697Z,97.03
2023-02-11T06:14:01.600Z,95.77
2023-02-11T06:14:34.292Z,95.77
2023-02-11T06:15:06.739Z,97.77
2023-02-11T06:15:38.542Z,103.70
2023-02-11T06:16:10.750Z,103.27
2023-02-11T06:16:42.557Z,102.93
2023-02-11T06:17:15.661Z,100.97
2023-02-11T06:17:47.576Z,101.83
2023-02-11T06:18:19.484Z,108.00
2023-02-11T06:18:51.350Z,108.47
2023-02-11T06:19:23.070Z,107.30
2023-02-11T06:19:54.804Z,105.93
2023-02-11T06:20:26.701Z,107.03
2023-02-11T06:20:58.457Z,108.13
2023-02-11T06:21:42.929Z,108.97
2023-02-11T06:22:15.575Z,107.80
2023-02-11T06:22:47.344Z,105.47
2023-02-11T06:23:19.177Z,101.40
2023-02-11T06:23:50.949Z,101.03
2023-02-11T06:24:47.707Z,101.00
2023-02-11T06:25:15.244Z,100.73
2023-02-11T06:25:47.175Z,103.27
2023-02-11T06:26:21.892Z,105.77
2023-02-11T06:26:53.694Z,97.73
2023-02-11T06:27:25.456Z,99.60
2023-02-11T06:27:57.540Z,99.40
2023-02-11T06:28:31.403Z,102.33
2023-02-11T06:29:03.755Z,393.77
2023-02-11T06:29:36.565Z,327.73
2023-02-11T06:30:09.167Z,404.47
2023-02-11T06:30:41.343Z,259.57
2023-02-11T06:31:13.411Z,206.40
2023-02-11T06:31:45.293Z,207.57
2023-02-11T06:32:39.431Z,191.77
2023-02-11T06:33:10.030Z,155.40
2023-02-11T06:33:42.424Z,170.03
2023-02-11T06:34:14.285Z,157.27
2023-02-11T06:34:46.566Z,147.53
2023-02-11T06:35:18.510Z,111.17
2023-02-11T06:35:50.438Z,109.03
2023-02-11T06:36:23.358Z,107.77
2023-02-11T06:36:55.219Z,105.43
2023-02-11T06:37:27.148Z,102.20
2023-02-11T06:37:59.473Z,101.27
2023-02-11T06:38:31.557Z,108.43
2023-02-11T06:39:03.879Z,109.47
2023-02-11T06:39:35.782Z,100.57
2023-02-11T06:40:07.881Z,95.93
2023-02-11T06:40:39.762Z,108.83
2023-02-11T06:41:13.319Z,118.53
2023-02-11T06:41:45.175Z,111.27
2023-02-11T06:42:17.447Z,102.77
2023-02-11T06:42:50.142Z,100.40
2023-02-11T06:43:22.330Z,106.47
2023-02-11T06:43:54.935Z,110.53
2023-02-11T06:44:29.088Z,111.50
2023-02-11T06:45:02.804Z,110.73
2023-02-11T06:45:34.639Z,109.67
2023-02-11T06:46:07.078Z,113.70
2023-02-11T06:46:39.302Z,113.07
2023-02-11T06:47:11.406Z,107.50
2023-02-11T06:47:43.270Z,108.47
2023-02-11T06:48:15.648Z,108.57
2023-02-11T06:48:47.465Z,109.60
2023-02-11T06:49:19.301Z,110.87
2023-02-11T06:49:51.040Z,110.53
2023-02-11T06:50:22.818Z,114.93
2023-02-11T06:50:54.649Z,111.77
2023-02-11T06:51:26.573Z,109.80
2023-02-11T06:51:58.305Z,111.17
2023-02-11T06:52:30.174Z,109.10
2023-02-11T06:53:02.058Z,110.77
2023-02-11T06:53:39.462Z,105.97
2023-02-11T06:54:13.050Z,104.43
2023-02-11T06:54:44.890Z,100.40
2023-02-11T06:55:16.910Z,98.77
2023-02-11T06:55:48.853Z,99.77
2023-02-11T06:56:23.488Z,99.00
2023-02-11T06:56:55.290Z,99.20
2023-02-11T06:57:26.999Z,103.07
2023-02-11T06:57:58.780Z,105.17
2023-02-11T06:58:30.587Z,102.40
2023-02-11T06:59:03.552Z,103.77
2023-02-11T06:59:35.306Z,111.87
2023-02-11T07:00:07.878Z,120.17
2023-02-11T07:00:39.718Z,123.00
2023-02-11T07:01:15.153Z,121.10
2023-02-11T07:01:47.893Z,120.77
2023-02-11T07:02:21.035Z,123.00
2023-02-11T07:02:53.102Z,121.23
2023-02-11T07:03:25.440Z,117.63
2023-02-11T07:03:57.401Z,119.03
2023-02-11T07:04:29.325Z,119.33
2023-02-11T07:05:01.634Z,119.87
2023-02-11T07:05:34.468Z,119.03
2023-02-11T07:06:08.319Z,113.70
2023-02-11T07:06:40.771Z,108.90
2023-02-11T07:07:12.566Z,106.33
2023-02-11T07:07:44.357Z,102.97
2023-02-11T07:08:16.249Z,103.20
2023-02-11T07:08:48.722Z,103.00
2023-02-11T07:09:20.819Z,104.03
2023-02-11T07:09:52.582Z,103.10
2023-02-11T07:10:24.356Z,109.87
2023-02-11T07:10:56.349Z,111.43
2023-02-11T07:11:30.185Z,112.67
2023-02-11T07:12:02.238Z,113.23
2023-02-11T07:12:34.104Z,111.97
2023-02-11T07:13:06.050Z,110.43
2023-02-11T07:13:38.008Z,107.13
2023-02-11T07:14:10.788Z,104.63
2023-02-11T07:14:42.788Z,104.37
2023-02-11T07:15:14.585Z,108.03
2023-02-11T07:15:46.497Z,103.37
2023-02-11T07:16:19.822Z,105.33
2023-02-11T07:16:51.843Z,109.37
2023-02-11T07:17:23.663Z,114.10
2023-02-11T07:17:55.443Z,117.00
2023-02-11T07:18:27.271Z,115.60
2023-02-11T07:18:59.151Z,112.00
2023-02-11T07:19:31.053Z,109.30
2023-02-11T07:20:03.636Z,110.37
2023-02-11T07:20:36.735Z,109.73
2023-02-11T07:21:11.814Z,111.93
2023-02-11T07:21:43.606Z,116.13
2023-02-11T07:22:15.462Z,116.63
2023-02-11T07:22:47.179Z,120.83
2023-02-11T07:23:18.938Z,122.27
2023-02-11T07:23:51.811Z,122.13
2023-02-11T07:24:23.554Z,121.33